Time;durP1;ratioP1;P1;durP2;ratioP2;P2;SDS_P1;SDS_P2;PMS_P1;PMS_P2;Temp;Humidity;BMP_temperature;BMP_pressure;BME280_temperature;BME280_humidity;BME280_pressure;Samples;Min_cycle;Max_cycle;Signal;HPM_P1;HPM_P2
2024/01/23 00:02:35;;;;;;;3.67;1.60;;;5.30;99.90;;;;;;5043325;28;20069;-81
2024/01/23 00:05:28;;;;;;;7.40;2.15;;;5.20;99.90;;;;;;5039387;28;20406;-83
2024/01/23 00:08:25;;;;;;;6.35;1.73;;;5.20;99.90;;;;;;5037527;28;20033;-83
2024/01/23 00:11:15;;;;;;;;;;;5.20;99.90;;;;;;5044978;28;20037;-77
2024/01/23 00:14:14;;;;;;;10.18;1.85;;;5.10;99.90;;;;;;5053624;28;19920;-79
2024/01/23 00:17:06;;;;;;;6.10;1.90;;;5.10;99.90;;;;;;5062692;28;20075;-78
2024/01/23 00:20:21;;;;;;;4.72;1.95;;;5.20;99.90;;;;;;5043990;28;20053;-81
2024/01/23 00:23:14;;;;;;;7.40;1.88;;;5.20;99.90;;;;;;5038211;28;20055;-80
2024/01/23 00:26:10;;;;;;;9.55;2.08;;;5.20;99.90;;;;;;5046215;28;20067;-80
2024/01/23 00:28:59;;;;;;;6.13;1.98;;;5.20;99.90;;;;;;5042509;28;20047;-79
2024/01/23 00:31:50;;;;;;;7.47;2.17;;;5.30;99.90;;;;;;5051486;28;20060;-80
2024/01/23 00:34:40;;;;;;;7.32;1.70;;;5.20;99.90;;;;;;5042341;28;20041;-85
2024/01/23 00:37:31;;;;;;;5.82;1.75;;;5.10;99.90;;;;;;5046533;28;20049;-82
2024/01/23 00:40:24;;;;;;;12.45;2.08;;;5.10;99.90;;;;;;5051942;28;20237;-78
2024/01/23 00:43:14;;;;;;;11.38;2.40;;;5.10;99.90;;;;;;5054038;28;20043;-79
2024/01/23 00:46:02;;;;;;;7.97;2.30;;;5.00;99.90;;;;;;5025975;28;20051;-81
2024/01/23 00:48:52;;;;;;;5.97;1.80;;;5.00;99.90;;;;;;5045570;28;20037;-82
2024/01/23 00:51:53;;;;;;;8.55;2.10;;;4.90;99.90;;;;;;5032796;28;20412;-79
2024/01/23 00:54:40;;;;;;;8.80;2.00;;;4.80;99.90;;;;;;5043758;28;20078;-79
2024/01/23 00:57:34;;;;;;;9.00;2.03;;;4.80;99.90;;;;;;5048327;28;20045;-83
2024/01/23 01:00:27;;;;;;;8.40;1.83;;;4.80;99.90;;;;;;5030896;28;20049;-83
2024/01/23 01:03:24;;;;;;;5.95;1.88;;;4.80;99.90;;;;;;5036028;28;20045;-78
2024/01/23 01:06:16;;;;;;;9.50;1.85;;;4.70;99.90;;;;;;5033888;28;20059;-81
2024/01/23 01:09:20;;;;;;;8.07;1.95;;;4.70;99.90;;;;;;5053184;28;20037;-82
2024/01/23 01:12:24;;;;;;;;;;;;;;;;;;;;;
2024/01/23 01:15:16;;;;;;;8.52;2.75;;;4.70;99.90;;;;;;5050120;28;20076;-81
2024/01/23 01:18:08;;;;;;;10.95;2.53;;;4.60;99.90;;;;;;5023570;28;20041;-81
2024/01/23 01:21:04;;;;;;;7.65;2.22;;;4.60;99.90;;;;;;5043045;28;20131;-80
2024/01/23 01:24:05;;;;;;;10.60;2.67;;;4.60;99.90;;;;;;5026482;28;20670;-79
2024/01/23 01:27:15;;;;;;;11.55;2.53;;;4.50;99.90;;;;;;5046002;28;20185;-82
2024/01/23 01:30:18;;;;;;;10.40;2.65;;;4.50;99.90;;;;;;5048812;28;20037;-83
2024/01/23 01:33:14;;;;;;;12.70;2.80;;;4.50;99.90;;;;;;5039671;28;20118;-86
2024/01/23 01:36:08;;;;;;;12.15;2.70;;;4.40;99.90;;;;;;5042463;28;20056;-80
2024/01/23 01:39:07;;;;;;;12.27;2.83;;;4.40;99.90;;;;;;5044555;28;20104;-79
2024/01/23 01:42:04;;;;;;;;;;;4.30;99.90;;;;;;5045622;28;20120;-79
2024/01/23 01:45:10;;;;;;;15.68;2.78;;;4.30;99.90;;;;;;5044097;28;19921;-77
2024/01/23 01:48:14;;;;;;;17.65;2.75;;;4.20;99.90;;;;;;5062408;28;20355;-81
2024/01/23 01:51:29;;;;;;;12.57;2.45;;;4.10;99.90;;;;;;5032723;28;20567;-79
2024/01/23 01:54:55;;;;;;;12.15;2.33;;;4.10;99.90;;;;;;5034731;28;20045;-79
2024/01/23 01:58:05;;;;;;;11.23;2.60;;;4.00;99.90;;;;;;5030691;28;20037;-77
2024/01/23 02:01:22;;;;;;;9.93;2.72;;;4.00;99.90;;;;;;5030090;28;20094;-79
2024/01/23 02:04:31;;;;;;;9.32;2.63;;;4.00;99.90;;;;;;5029959;28;20045;-79
2024/01/23 02:07:35;;;;;;;10.75;2.38;;;4.00;99.90;;;;;;5028897;28;20042;-82
2024/01/23 02:10:32;;;;;;;14.52;2.10;;;4.00;99.90;;;;;;5039577;28;20040;-81
2024/01/23 02:13:28;;;;;;;13.20;2.40;;;4.00;99.90;;;;;;5028230;28;20551;-82
2024/01/23 02:16:31;;;;;;;16.52;2.92;;;4.00;99.90;;;;;;5040988;28;20049;-84
2024/01/23 02:19:36;;;;;;;7.38;2.00;;;3.90;99.90;;;;;;5019769;28;20057;-83
2024/01/23 02:22:32;;;;;;;16.17;2.75;;;3.90;99.90;;;;;;5031008;28;20057;-81
2024/01/23 02:25:42;;;;;;;16.10;2.47;;;3.80;99.90;;;;;;5042507;28;20053;-81
2024/01/23 02:28:41;;;;;;;16.05;3.22;;;3.80;99.90;;;;;;5040314;28;20402;-79
2024/01/23 02:31:36;;;;;;;15.95;2.53;;;4.00;99.90;;;;;;5042828;28;20037;-83
2024/01/23 02:34:29;;;;;;;17.92;3.25;;;4.20;99.90;;;;;;5038473;28;20048;-83
2024/01/23 02:37:28;;;;;;;17.85;3.55;;;4.30;99.90;;;;;;5039405;28;20193;-82
2024/01/23 02:40:25;;;;;;;14.88;2.58;;;4.40;99.90;;;;;;5037626;28;20045;-79
2024/01/23 02:43:39;;;;;;;15.38;2.72;;;4.50;99.90;;;;;;5037094;28;20073;-81
2024/01/23 02:46:47;;;;;;;15.25;2.25;;;4.60;99.90;;;;;;5026589;28;20115;-83
2024/01/23 02:50:30;;;;;;;18.25;4.57;;;4.60;99.90;;;;;;5022827;28;20045;-81
2024/01/23 02:53:22;;;;;;;15.50;2.75;;;4.60;99.90;;;;;;5027622;28;20041;-82
2024/01/23 02:56:15;;;;;;;15.35;3.28;;;4.60;99.90;;;;;;5043081;28;20579;-82
2024/01/23 02:59:07;;;;;;;11.52;2.60;;;4.60;99.90;;;;;;5032762;28;20049;-81
2024/01/23 03:01:57;;;;;;;24.42;3.65;;;4.60;99.90;;;;;;5043753;28;20139;-82
2024/01/23 03:04:50;;;;;;;17.45;3.58;;;4.60;99.90;;;;;;5027400;28;20135;-82
2024/01/23 03:07:50;;;;;;;24.85;3.65;;;4.70;99.90;;;;;;5037903;28;20040;-82
2024/01/23 03:10:45;;;;;;;21.30;3.38;;;4.70;99.90;;;;;;5045565;28;20072;-82
2024/01/23 03:13:40;;;;;;;17.63;2.85;;;4.80;99.90;;;;;;5042920;28;20045;-81
2024/01/23 03:16:40;;;;;;;20.70;3.33;;;4.80;99.90;;;;;;5041237;28;20449;-82
2024/01/23 03:19:43;;;;;;;15.68;2.60;;;4.80;99.90;;;;;;5039642;28;20057;-82
2024/01/23 03:22:33;;;;;;;20.23;3.33;;;4.90;99.90;;;;;;5024197;28;20049;-83
2024/01/23 03:25:27;;;;;;;14.52;3.47;;;5.00;99.90;;;;;;5033266;28;20519;-83
2024/01/23 03:28:30;;;;;;;23.77;3.92;;;4.90;99.90;;;;;;5043198;28;20049;-84
2024/01/23 03:31:20;;;;;;;20.40;4.10;;;5.00;99.90;;;;;;5040251;28;20094;-83
2024/01/23 03:34:19;;;;;;;17.77;3.10;;;5.00;99.90;;;;;;5029604;28;20049;-79
2024/01/23 03:37:20;;;;;;;25.83;4.43;;;5.00;99.90;;;;;;5032422;28;20131;-81
2024/01/23 03:40:31;;;;;;;21.80;3.20;;;5.00;99.90;;;;;;5037291;28;20037;-81
2024/01/23 03:43:23;;;;;;;17.40;3.88;;;5.00;99.90;;;;;;5042629;28;20894;-81
2024/01/23 03:46:18;;;;;;;22.40;4.07;;;5.00;99.90;;;;;;5039123;28;20522;-80
2024/01/23 03:49:09;;;;;;;17.55;3.58;;;5.10;99.90;;;;;;5040100;28;20076;-82
2024/01/23 03:51:59;;;;;;;24.42;3.63;;;5.10;99.90;;;;;;5031262;28;20049;-81
2024/01/23 03:54:48;;;;;;;18.55;4.28;;;5.10;99.90;;;;;;5047921;28;20047;-84
2024/01/23 03:57:49;;;;;;;22.17;3.75;;;5.10;99.90;;;;;;5066356;28;20036;-79
2024/01/23 04:00:48;;;;;;;15.52;3.55;;;5.10;99.90;;;;;;5056903;28;20025;-83
2024/01/23 04:03:43;;;;;;;16.10;3.35;;;5.00;99.90;;;;;;5046206;28;20065;-80
2024/01/23 04:06:55;;;;;;;16.92;3.08;;;4.90;99.90;;;;;;5053437;28;20222;-81
2024/01/23 04:09:53;;;;;;;25.92;4.88;;;4.90;99.90;;;;;;5046899;28;20034;-81
2024/01/23 04:13:06;;;;;;;11.73;2.55;;;4.90;99.90;;;;;;5034570;28;20116;-82
2024/01/23 04:15:54;;;;;;;19.10;3.53;;;4.90;99.90;;;;;;5050123;28;20034;-78
2024/01/23 04:18:41;;;;;;;17.67;3.35;;;4.90;99.90;;;;;;5056500;28;20095;-79
2024/01/23 04:21:37;;;;;;;26.85;4.07;;;5.00;99.90;;;;;;5054564;28;20084;-82
2024/01/23 04:24:26;;;;;;;18.52;3.20;;;4.90;99.90;;;;;;5053213;28;20494;-81
2024/01/23 04:27:17;;;;;;;24.08;3.53;;;4.90;99.90;;;;;;5030092;28;20571;-82
2024/01/23 04:30:23;;;;;;;17.35;3.17;;;4.80;99.90;;;;;;5039197;28;20048;-79
2024/01/23 04:33:16;;;;;;;15.82;2.95;;;4.70;99.90;;;;;;5055650;28;20064;-79
2024/01/23 04:36:09;;;;;;;23.90;3.25;;;4.80;99.90;;;;;;5060379;28;20045;-82
2024/01/23 04:39:13;;;;;;;28.00;3.70;;;4.80;99.90;;;;;;5062588;28;20048;-81
2024/01/23 04:42:26;;;;;;;22.85;4.25;;;4.80;99.90;;;;;;5053524;28;20055;-80
2024/01/23 04:45:19;;;;;;;13.40;3.75;;;4.70;99.90;;;;;;5055927;28;20044;-78
2024/01/23 04:48:38;;;;;;;;;;;;;;;;;;;;;
2024/01/23 04:51:35;;;;;;;24.60;3.70;;;4.50;99.90;;;;;;5054773;28;20037;-81
2024/01/23 04:54:42;;;;;;;20.67;3.80;;;4.50;99.90;;;;;;5043529;28;20044;-77
2024/01/23 04:57:45;;;;;;;17.02;3.85;;;4.50;99.90;;;;;;5042479;28;20041;-82
2024/01/23 05:00:57;;;;;;;22.10;3.65;;;4.50;99.90;;;;;;5047019;28;20083;-77
2024/01/23 05:03:50;;;;;;;19.25;3.55;;;4.40;99.90;;;;;;5049766;28;20036;-82
2024/01/23 05:06:43;;;;;;;24.23;3.95;;;4.30;99.90;;;;;;5042096;28;20040;-83
2024/01/23 05:09:48;;;;;;;17.02;4.03;;;4.30;99.90;;;;;;5036416;28;20470;-83
2024/01/23 05:12:40;;;;;;;21.85;4.22;;;4.20;99.90;;;;;;5039014;28;20144;-79
2024/01/23 05:15:42;;;;;;;21.13;3.10;;;4.20;99.90;;;;;;5041088;28;20069;-79
2024/01/23 05:18:33;;;;;;;15.32;3.35;;;4.10;99.90;;;;;;5043743;28;20049;-81
2024/01/23 05:21:23;;;;;;;15.48;2.65;;;4.10;99.90;;;;;;5046085;28;20052;-82
2024/01/23 05:24:29;;;;;;;13.05;2.85;;;4.10;99.90;;;;;;5035338;28;20049;-84
2024/01/23 05:27:27;;;;;;;7.20;2.05;;;4.00;99.90;;;;;;5048208;28;20037;-78
2024/01/23 05:30:20;;;;;;;7.97;1.73;;;3.90;99.90;;;;;;5064015;28;20059;-78
2024/01/23 05:33:30;;;;;;;8.75;1.70;;;3.90;99.90;;;;;;5059734;28;20069;-79
2024/01/23 05:36:37;;;;;;;3.75;1.42;;;3.80;99.90;;;;;;5041891;28;20362;-82
2024/01/23 05:39:44;;;;;;;7.82;1.80;;;3.70;99.90;;;;;;5048851;28;20053;-83
2024/01/23 05:42:46;;;;;;;4.25;2.00;;;3.70;99.90;;;;;;5031147;28;20124;-83
2024/01/23 05:45:57;;;;;;;9.07;1.98;;;3.60;99.90;;;;;;5040040;28;20041;-83
2024/01/23 05:48:49;;;;;;;5.32;2.20;;;3.50;99.90;;;;;;5042040;28;20045;-84
2024/01/23 05:51:47;;;;;;;4.15;1.60;;;3.50;99.90;;;;;;5022438;28;20051;-82
2024/01/23 05:54:50;;;;;;;3.05;1.58;;;3.40;99.90;;;;;;5030788;28;20110;-80
2024/01/23 05:57:53;;;;;;;7.25;2.08;;;3.40;99.90;;;;;;5030384;28;20037;-77
2024/01/23 06:00:57;;;;;;;4.60;2.13;;;3.40;99.90;;;;;;5030517;28;20249;-81
2024/01/23 06:04:00;;;;;;;9.00;2.50;;;3.30;99.90;;;;;;5046079;28;20687;-82
2024/01/23 06:07:08;;;;;;;8.95;4.05;;;3.20;99.90;;;;;;5040440;28;20033;-82
2024/01/23 06:10:16;;;;;;;9.68;2.83;;;3.20;99.90;;;;;;5033113;28;20044;-83
2024/01/23 06:13:17;;;;;;;13.43;4.00;;;3.10;99.90;;;;;;5038451;28;20051;-82
2024/01/23 06:16:34;;;;;;;10.10;2.80;;;3.10;99.90;;;;;;5039430;28;20045;-84
2024/01/23 06:19:57;;;;;;;7.47;2.28;;;3.00;99.90;;;;;;5037032;28;20072;-82
2024/01/23 06:22:58;;;;;;;9.27;2.65;;;3.00;99.90;;;;;;5040260;28;20211;-83
2024/01/23 06:25:58;;;;;;;7.05;2.70;;;3.00;99.90;;;;;;5043695;28;20049;-80
2024/01/23 06:28:46;;;;;;;6.38;1.95;;;3.00;99.90;;;;;;5028122;28;20038;-81
2024/01/23 06:31:33;;;;;;;10.30;2.67;;;3.00;99.90;;;;;;5027804;28;20079;-81
2024/01/23 06:34:24;;;;;;;6.18;1.77;;;3.00;99.90;;;;;;5038578;28;20037;-80
2024/01/23 06:37:26;;;;;;;6.07;1.90;;;3.00;99.90;;;;;;5043462;28;20045;-80
2024/01/23 06:40:32;;;;;;;3.33;1.42;;;3.00;99.90;;;;;;5052055;28;20052;-83
2024/01/23 06:43:54;;;;;;;5.57;2.20;;;3.00;99.90;;;;;;5056016;28;20037;-81
2024/01/23 06:46:55;;;;;;;1.65;1.17;;;3.00;99.90;;;;;;5060932;28;20048;-81
2024/01/23 06:50:00;;;;;;;4.50;1.98;;;3.00;99.90;;;;;;5028360;28;20064;-80
2024/01/23 06:52:54;;;;;;;2.78;1.20;;;3.00;99.90;;;;;;5059927;28;20104;-77
2024/01/23 06:55:58;;;;;;;9.07;2.05;;;2.90;99.90;;;;;;5039444;28;20056;-77
2024/01/23 06:58:51;;;;;;;2.22;1.35;;;2.90;99.90;;;;;;5045873;28;20048;-77
2024/01/23 07:01:54;;;;;;;2.47;1.48;;;2.90;99.90;;;;;;5043728;28;20052;-78
2024/01/23 07:04:58;;;;;;;5.97;1.48;;;2.90;99.90;;;;;;5039755;28;20110;-78
2024/01/23 07:08:02;;;;;;;5.22;1.35;;;3.00;99.90;;;;;;5030986;28;20034;-79
2024/01/23 07:10:52;;;;;;;;;;;2.90;99.90;;;;;;5029588;28;20052;-80
2024/01/23 07:13:41;;;;;;;15.30;1.58;;;3.00;99.90;;;;;;5047411;28;19928;-80
2024/01/23 07:16:31;;;;;;;4.10;1.55;;;2.90;99.90;;;;;;5047207;28;20354;-79
2024/01/23 07:19:20;;;;;;;7.22;1.60;;;2.90;99.90;;;;;;5041788;28;20033;-77
2024/01/23 07:22:08;;;;;;;5.00;2.45;;;2.80;99.90;;;;;;5065363;28;20037;-76
2024/01/23 07:25:03;;;;;;;8.20;2.95;;;2.70;99.90;;;;;;5041042;28;20049;-79
2024/01/23 07:27:56;;;;;;;12.93;2.33;;;2.70;99.90;;;;;;5029866;28;20478;-80
2024/01/23 07:30:57;;;;;;;;;;;;;;;;;;;;;
2024/01/23 07:33:48;;;;;;;2.53;1.90;;;2.80;99.90;;;;;;5046678;28;20095;-80
2024/01/23 07:36:45;;;;;;;7.45;2.30;;;2.80;99.90;;;;;;5031159;28;20096;-80
2024/01/23 07:39:38;;;;;;;9.00;2.33;;;2.90;99.90;;;;;;5040808;28;20053;-80
2024/01/23 07:42:28;;;;;;;8.23;2.15;;;3.00;99.90;;;;;;5025183;28;20041;-81
2024/01/23 07:45:16;;;;;;;9.18;1.95;;;3.00;99.90;;;;;;5050794;28;20524;-80
2024/01/23 07:48:07;;;;;;;6.13;2.05;;;3.10;99.90;;;;;;5051116;28;20056;-79
2024/01/23 07:51:02;;;;;;;6.95;2.30;;;3.10;99.90;;;;;;5030169;28;20064;-81
2024/01/23 07:53:53;;;;;;;8.27;1.90;;;3.10;99.90;;;;;;5031706;28;20107;-79
2024/01/23 07:56:51;;;;;;;7.47;2.63;;;3.20;99.90;;;;;;5021996;28;20045;-80
2024/01/23 07:59:41;;;;;;;9.60;2.38;;;3.20;99.90;;;;;;5039380;28;20565;-78
2024/01/23 08:02:32;;;;;;;9.73;2.20;;;3.30;99.90;;;;;;5034107;28;20144;-79
2024/01/23 08:05:22;;;;;;;9.48;2.60;;;3.30;99.90;;;;;;5038034;28;20059;-80
2024/01/23 08:08:11;;;;;;;14.57;3.05;;;3.40;99.90;;;;;;5030434;28;20057;-79
2024/01/23 08:11:06;;;;;;;17.95;4.60;;;3.40;99.90;;;;;;5031205;28;20049;-79
2024/01/23 08:13:58;;;;;;;10.15;2.80;;;3.40;99.90;;;;;;5038560;28;20143;-80
2024/01/23 08:16:48;;;;;;;8.77;2.42;;;3.40;99.90;;;;;;5039434;28;20043;-80
2024/01/23 08:19:39;;;;;;;12.98;3.00;;;3.40;99.90;;;;;;5038840;28;20610;-79
2024/01/23 08:22:32;;;;;;;11.27;2.90;;;3.50;99.90;;;;;;5029053;28;20057;-81
2024/01/23 08:25:23;;;;;;;12.23;2.95;;;3.50;99.90;;;;;;5040789;28;20052;-82
2024/01/23 08:28:13;;;;;;;17.35;3.25;;;3.50;99.90;;;;;;5040537;28;20049;-80
2024/01/23 08:31:05;;;;;;;11.50;3.85;;;3.60;99.90;;;;;;5022713;28;20041;-81
2024/01/23 08:33:54;;;;;;;14.57;3.83;;;3.60;99.90;;;;;;5041793;28;20041;-77
2024/01/23 08:36:42;;;;;;;16.58;3.90;;;3.70;99.90;;;;;;5036397;28;20554;-78
2024/01/23 08:39:30;;;;;;;16.10;4.30;;;3.70;99.90;;;;;;5049165;28;20777;-78
2024/01/23 08:42:17;;;;;;;21.38;3.88;;;3.70;99.90;;;;;;5041561;28;20052;-80
2024/01/23 08:45:08;;;;;;;11.43;3.28;;;3.70;99.90;;;;;;5040184;28;20474;-80
2024/01/23 08:47:58;;;;;;;10.93;2.60;;;3.70;99.90;;;;;;5050561;28;20044;-78
2024/01/23 08:50:50;;;;;;;16.10;2.63;;;3.80;99.90;;;;;;5044033;28;20590;-82
2024/01/23 08:53:44;;;;;;;14.25;3.10;;;4.00;99.90;;;;;;5040005;28;20041;-80
2024/01/23 08:56:31;;;;;;;10.18;3.50;;;4.10;99.90;;;;;;5039840;28;20248;-80
2024/01/23 08:59:22;;;;;;;18.10;4.13;;;4.20;99.90;;;;;;5042672;28;20064;-79
2024/01/23 09:02:13;;;;;;;9.40;2.88;;;4.40;99.90;;;;;;5042759;28;20048;-80
2024/01/23 09:05:05;;;;;;;14.15;2.85;;;4.50;99.90;;;;;;5039653;28;20557;-78
2024/01/23 09:07:54;;;;;;;5.07;2.10;;;4.90;99.90;;;;;;5043118;28;20135;-77
2024/01/23 09:10:42;;;;;;;11.80;4.03;;;5.20;99.90;;;;;;5043287;28;20128;-80
2024/01/23 09:13:34;;;;;;;8.90;2.08;;;5.30;99.90;;;;;;5045977;28;20045;-80
2024/01/23 09:16:21;;;;;;;9.00;2.17;;;5.50;99.90;;;;;;5040842;28;20068;-78
2024/01/23 09:19:10;;;;;;;10.25;2.40;;;5.80;99.90;;;;;;5043185;28;20584;-76
2024/01/23 09:22:12;;;;;;;9.93;2.90;;;5.90;99.90;;;;;;5046101;28;20056;-81
2024/01/23 09:25:06;;;;;;;7.97;2.58;;;6.20;99.90;;;;;;5049400;28;20052;-80
2024/01/23 09:28:05;;;;;;;9.15;2.40;;;6.50;99.90;;;;;;5031998;28;20139;-78
2024/01/23 09:30:54;;;;;;;4.03;1.30;;;6.90;99.90;;;;;;5043922;28;20044;-83
2024/01/23 09:33:57;;;;;;;6.78;1.88;;;6.90;99.90;;;;;;5063401;28;20029;-78
2024/01/23 09:36:52;;;;;;;8.43;2.65;;;6.70;99.90;;;;;;5055837;28;20104;-81
2024/01/23 09:39:53;;;;;;;14.43;2.72;;;6.50;99.90;;;;;;5033367;28;20052;-82
2024/01/23 09:42:44;;;;;;;8.45;2.80;;;6.30;99.90;;;;;;5038854;28;20128;-79
2024/01/23 09:45:35;;;;;;;12.38;3.13;;;6.10;99.90;;;;;;5040180;28;20049;-79
2024/01/23 09:48:23;;;;;;;16.58;3.53;;;6.20;99.90;;;;;;5034841;28;20512;-77
2024/01/23 09:51:14;;;;;;;17.25;3.17;;;6.30;99.90;;;;;;5042285;28;20045;-80
2024/01/23 09:54:02;;;;;;;23.60;3.35;;;6.20;99.90;;;;;;5046979;28;20048;-80
2024/01/23 09:56:50;;;;;;;21.90;3.83;;;6.00;99.90;;;;;;5043852;28;20048;-78
2024/01/23 09:59:40;;;;;;;18.50;3.58;;;5.80;99.90;;;;;;5043188;28;20041;-78
2024/01/23 10:02:28;;;;;;;22.58;4.18;;;5.50;99.90;;;;;;5041788;28;20129;-78
2024/01/23 10:05:22;;;;;;;19.65;3.50;;;5.40;99.90;;;;;;5039641;28;20056;-79
2024/01/23 10:08:11;;;;;;;20.20;4.43;;;5.30;99.90;;;;;;5038906;28;20417;-79
2024/01/23 10:11:02;;;;;;;17.23;3.92;;;5.20;99.90;;;;;;5038416;28;20410;-77
2024/01/23 10:13:49;;;;;;;29.35;5.57;;;5.20;99.90;;;;;;5035263;28;20056;-80
2024/01/23 10:16:39;;;;;;;18.30;4.30;;;5.30;99.90;;;;;;5035777;28;20043;-76
2024/01/23 10:19:26;;;;;;;20.55;4.05;;;5.20;99.90;;;;;;5038960;28;20059;-81
2024/01/23 10:22:15;;;;;;;12.85;3.53;;;5.20;99.90;;;;;;5044225;28;20045;-76
2024/01/23 10:25:22;;;;;;;14.65;3.10;;;5.20;99.90;;;;;;5055511;28;20072;-76
2024/01/23 10:28:10;;;;;;;14.20;2.95;;;5.20;99.90;;;;;;5047830;28;20024;-74
2024/01/23 10:30:58;;;;;;;20.27;3.22;;;5.20;99.90;;;;;;5059890;28;20033;-76
2024/01/23 10:33:45;;;;;;;16.02;3.47;;;5.30;99.90;;;;;;5044077;28;20460;-77
2024/01/23 10:36:33;;;;;;;14.45;3.40;;;5.30;99.90;;;;;;5056425;28;20676;-80
2024/01/23 10:39:26;;;;;;;16.77;3.55;;;5.50;99.90;;;;;;5071265;28;20048;-77
2024/01/23 10:42:14;;;;;;;18.25;4.53;;;6.40;99.90;;;;;;5064922;28;20041;-77
2024/01/23 10:45:06;;;;;;;12.07;2.40;;;7.40;99.90;;;;;;5058342;28;20121;-74
2024/01/23 10:47:56;;;;;;;10.10;2.90;;;8.20;99.90;;;;;;5045996;28;20098;-78
2024/01/23 10:51:20;;;;;;;9.90;2.47;;;8.70;99.90;;;;;;5055533;28;20052;-77
2024/01/23 10:54:12;;;;;;;11.95;2.45;;;9.30;52.50;;;;;;5053983;28;20044;-77
2024/01/23 10:57:07;;;;;;;9.95;2.05;;;9.70;99.90;;;;;;5044741;28;20049;-79
2024/01/23 10:59:59;;;;;;;13.15;2.88;;;10.40;99.90;;;;;;5048229;28;20057;-80
2024/01/23 11:02:59;;;;;;;15.18;3.38;;;10.40;1.00;;;;;;5034216;28;20049;-80
2024/01/23 11:06:12;;;;;;;13.52;3.20;;;10.30;99.90;;;;;;5047185;28;20049;-80
2024/01/23 11:09:15;;;;;;;20.08;3.45;;;9.70;99.90;;;;;;5041710;28;20057;-79
2024/01/23 11:12:28;;;;;;;16.13;3.40;;;10.00;99.90;;;;;;5047599;28;20105;-80
2024/01/23 11:15:19;;;;;;;18.33;3.55;;;10.50;99.90;;;;;;5050759;28;20425;-80
2024/01/23 11:18:34;;;;;;;17.58;2.97;;;10.80;96.80;;;;;;5051390;28;20179;-79
2024/01/23 11:21:29;;;;;;;15.55;2.85;;;10.00;1.00;;;;;;5043813;28;20128;-81
2024/01/23 11:24:45;;;;;;;14.00;3.38;;;9.40;1.00;;;;;;5043608;28;20429;-81
2024/01/23 11:27:37;;;;;;;14.13;3.28;;;8.90;1.00;;;;;;5047747;28;20151;-79
2024/01/23 11:30:27;;;;;;;9.57;2.55;;;8.50;1.00;;;;;;5037433;28;20481;-79
2024/01/23 11:33:23;;;;;;;12.80;3.10;;;8.70;1.00;;;;;;5056308;28;20091;-82
2024/01/23 11:36:25;;;;;;;15.45;2.97;;;9.40;1.00;;;;;;5055379;28;20128;-79
2024/01/23 11:39:23;;;;;;;18.88;3.20;;;10.40;1.00;;;;;;5057817;28;20049;-80
2024/01/23 11:42:14;;;;;;;13.73;3.00;;;11.00;99.90;;;;;;5043843;28;20041;-80
2024/01/23 11:45:25;;;;;;;14.32;3.17;;;11.20;99.90;;;;;;5020122;28;20049;-80
2024/01/23 11:48:13;;;;;;;20.05;4.50;;;10.90;99.90;;;;;;5026149;28;20048;-78
2024/01/23 11:51:13;;;;;;;12.93;2.75;;;10.50;99.90;;;;;;5037589;28;20042;-81
2024/01/23 11:54:12;;;;;;;10.98;3.08;;;10.50;99.90;;;;;;5052971;28;20430;-80
2024/01/23 11:57:03;;;;;;;15.65;3.05;;;11.00;99.90;;;;;;5050882;28;20060;-79
2024/01/23 11:59:50;;;;;;;13.10;2.85;;;11.70;99.90;;;;;;5041666;28;20073;-80
2024/01/23 12:02:39;;;;;;;13.95;3.00;;;11.20;99.90;;;;;;5041437;28;20038;-81
2024/01/23 12:05:26;;;;;;;10.13;2.72;;;10.80;99.90;;;;;;5058212;28;20064;-78
2024/01/23 12:08:14;;;;;;;14.20;3.08;;;11.40;99.90;;;;;;5061755;28;20053;-80
2024/01/23 12:11:04;;;;;;;17.98;3.47;;;11.20;99.90;;;;;;5061340;28;20386;-80
2024/01/23 12:13:56;;;;;;;10.90;2.83;;;11.30;99.90;;;;;;5060979;28;20878;-78
2024/01/23 12:16:45;;;;;;;13.38;3.10;;;11.10;99.90;;;;;;5052498;28;20029;-79
2024/01/23 12:20:02;;;;;;;16.55;3.25;;;9.90;99.90;;;;;;5058889;28;20076;-77
2024/01/23 12:22:50;;;;;;;12.40;3.13;;;9.00;99.90;;;;;;5049785;28;20051;-79
2024/01/23 12:25:37;;;;;;;13.23;2.42;;;8.90;99.90;;;;;;5044848;28;20049;-79
2024/01/23 12:28:27;;;;;;;17.67;3.55;;;8.70;99.90;;;;;;5041269;28;20086;-80
2024/01/23 12:31:19;;;;;;;14.00;3.08;;;8.30;99.90;;;;;;5021839;28;20079;-78
2024/01/23 12:34:09;;;;;;;16.45;2.97;;;7.80;99.90;;;;;;5011157;28;20041;-78
2024/01/23 12:37:00;;;;;;;13.68;3.60;;;7.60;99.90;;;;;;5041086;28;21113;-78
2024/01/23 12:39:50;;;;;;;15.13;2.95;;;7.50;99.90;;;;;;5035248;28;20052;-77
2024/01/23 12:42:46;;;;;;;16.17;3.45;;;7.30;99.90;;;;;;5047113;28;20041;-78
2024/01/23 12:45:34;;;;;;;15.77;3.13;;;7.20;99.90;;;;;;5042615;28;20822;-79
2024/01/23 12:48:41;;;;;;;19.25;3.42;;;7.10;99.90;;;;;;5048934;28;20090;-77
2024/01/23 12:51:29;;;;;;;17.17;3.88;;;6.90;99.90;;;;;;5044352;28;20549;-79
2024/01/23 12:54:19;;;;;;;13.52;3.35;;;6.90;99.90;;;;;;5030237;28;20410;-78
2024/01/23 12:57:07;;;;;;;17.75;3.42;;;7.10;99.90;;;;;;5037519;28;20406;-79
2024/01/23 13:00:00;;;;;;;14.35;3.30;;;7.20;99.90;;;;;;5046131;28;20041;-79
2024/01/23 13:02:48;;;;;;;17.27;3.35;;;7.00;99.90;;;;;;5021820;28;20068;-79
2024/01/23 13:05:36;;;;;;;14.40;3.10;;;6.90;99.90;;;;;;5037213;28;20506;-77
2024/01/23 13:08:24;;;;;;;19.48;3.53;;;6.90;99.90;;;;;;5041313;28;20041;-78
2024/01/23 13:11:13;;;;;;;12.95;2.88;;;6.80;99.90;;;;;;5041204;28;20401;-77
2024/01/23 13:14:11;;;;;;;14.30;3.33;;;6.70;99.90;;;;;;5054915;28;20048;-79
2024/01/23 13:16:58;;;;;;;15.27;6.18;;;6.60;1.00;;;;;;5051502;28;20068;-78
2024/01/23 13:19:46;;;;;;;18.02;2.63;;;6.50;1.00;;;;;;5041795;28;20047;-78
2024/01/23 13:22:44;;;;;;;17.75;3.58;;;6.50;1.00;;;;;;5040519;28;20044;-79
2024/01/23 13:25:31;;;;;;;15.88;3.00;;;6.60;1.00;;;;;;5045990;28;20047;-81
2024/01/23 13:28:22;;;;;;;11.52;2.60;;;6.50;1.00;;;;;;5050442;28;20040;-81
2024/01/23 13:31:15;;;;;;;15.05;3.75;;;6.50;1.00;;;;;;5041809;28;20040;-79
2024/01/23 13:34:07;;;;;;;14.45;3.53;;;6.50;1.00;;;;;;5037327;28;20029;-77
2024/01/23 13:36:57;;;;;;;10.82;3.08;;;6.60;1.00;;;;;;5062650;28;20041;-81
2024/01/23 13:39:54;;;;;;;16.17;2.97;;;6.60;1.00;;;;;;5040683;28;20041;-81
2024/01/23 13:42:42;;;;;;;15.95;2.78;;;6.60;1.00;;;;;;5029581;28;20048;-80
2024/01/23 13:45:33;;;;;;;10.23;3.45;;;6.50;1.00;;;;;;5047277;28;20856;-80
2024/01/23 13:48:20;;;;;;;13.77;3.10;;;6.50;1.00;;;;;;5032976;28;20203;-79
2024/01/23 13:51:12;;;;;;;17.23;3.05;;;6.50;1.00;;;;;;5046277;28;20408;-80
2024/01/23 13:54:03;;;;;;;13.85;2.95;;;6.50;1.00;;;;;;5040172;28;20056;-79
2024/01/23 13:57:00;;;;;;;10.98;3.22;;;6.50;1.00;;;;;;5041078;28;20095;-79
2024/01/23 13:59:48;;;;;;;15.75;2.75;;;6.50;1.00;;;;;;5035420;28;20064;-77
2024/01/23 14:02:43;;;;;;;14.15;2.80;;;6.50;1.00;;;;;;5032488;28;20056;-78
2024/01/23 14:05:30;;;;;;;13.05;3.13;;;6.50;1.00;;;;;;5038219;28;20053;-78
2024/01/23 14:08:20;;;;;;;16.83;3.58;;;6.50;1.00;;;;;;5031070;28;20128;-78
2024/01/23 14:11:10;;;;;;;17.65;3.30;;;6.50;1.00;;;;;;5029769;28;20037;-79
2024/01/23 14:13:57;;;;;;;20.48;3.03;;;6.50;1.00;;;;;;5041359;28;20045;-77
2024/01/23 14:16:46;;;;;;;16.33;3.33;;;6.50;3.30;;;;;;5051183;28;20041;-77
2024/01/23 14:19:35;;;;;;;8.52;2.25;;;6.60;15.70;;;;;;5043929;28;20046;-79
2024/01/23 14:22:28;;;;;;;15.30;3.72;;;6.60;3.30;;;;;;5035228;28;20056;-78
2024/01/23 14:25:16;;;;;;;10.27;2.70;;;6.60;22.00;;;;;;5025758;28;20100;-79
2024/01/23 14:28:04;;;;;;;21.23;3.30;;;6.50;12.20;;;;;;5041040;28;20075;-77
2024/01/23 14:30:52;;;;;;;10.10;3.08;;;6.50;22.90;;;;;;5039986;28;20033;-78
2024/01/23 14:33:41;;;;;;;11.68;3.30;;;6.50;61.30;;;;;;5027824;28;20041;-76
2024/01/23 14:36:31;;;;;;;14.02;3.17;;;6.50;66.60;;;;;;5061122;28;20071;-77
2024/01/23 14:39:19;;;;;;;16.23;2.90;;;6.40;52.80;;;;;;5056106;28;20041;-78
2024/01/23 14:42:13;;;;;;;27.20;3.75;;;6.40;80.60;;;;;;5031604;28;20106;-76
2024/01/23 14:45:03;;;;;;;10.95;3.08;;;6.40;93.50;;;;;;5048987;28;20052;-76
2024/01/23 14:47:51;;;;;;;16.83;3.95;;;6.40;99.90;;;;;;5041227;28;20517;-79
2024/01/23 14:50:44;;;;;;;17.50;4.40;;;6.30;99.90;;;;;;5036296;28;20483;-78
2024/01/23 14:53:33;;;;;;;14.02;3.38;;;6.30;99.90;;;;;;5039908;28;20037;-78
2024/01/23 14:56:28;;;;;;;18.42;5.38;;;6.30;99.90;;;;;;5036319;28;20132;-79
2024/01/23 14:59:17;;;;;;;17.88;4.53;;;6.20;99.90;;;;;;5035467;28;20049;-78
2024/01/23 15:02:06;;;;;;;11.13;3.58;;;6.30;99.90;;;;;;5021775;28;20053;-78
2024/01/23 15:04:53;;;;;;;18.55;3.45;;;6.20;99.90;;;;;;5024837;28;20792;-78
2024/01/23 15:07:43;;;;;;;12.25;3.42;;;6.20;1.00;;;;;;5041863;28;20762;-79
2024/01/23 15:10:31;;;;;;;11.52;3.13;;;6.20;1.00;;;;;;5025171;28;20108;-78
2024/01/23 15:13:19;;;;;;;18.08;4.28;;;6.20;99.90;;;;;;5035270;28;20056;-78
2024/01/23 15:16:12;;;;;;;12.18;3.05;;;6.20;99.90;;;;;;5037932;28;20045;-79
2024/01/23 15:19:00;;;;;;;16.15;4.00;;;6.20;99.90;;;;;;5028559;28;20434;-78
2024/01/23 15:21:49;;;;;;;13.57;2.92;;;6.20;99.90;;;;;;5036574;28;20048;-77
2024/01/23 15:24:38;;;;;;;13.40;2.55;;;6.20;99.90;;;;;;5033518;28;20048;-79